This is the latest recevied weather packets stored in our database for station/object VE3GSI. If no packets are shown the sender has not sent any weather packets the latest 10 day(s).
| Time | Temp. | Humidity | Pressure | Rain* | Wind** | Luminosity | Snow |
|---|---|---|---|---|---|---|---|
| 1777809964 | 3.33° C | 78% | 1011.4 hPa | 0 mm | - | - | - |
| 1777800964 | -1.11° C | 87% | 1011 hPa | 0 mm | - | - | - |
| 1777800365 | -1.11° C | 86% | 1011.1 hPa | 0 mm | - | - | - |
| 1777798564 | -0.56° C | 83% | 1011.2 hPa | 0 mm | - | - | - |
| 1777796165 | 1.11° C | 78% | 1011.3 hPa | 0 mm | - | - | - |
| 1777793764 | 3.33° C | 71% | 1011.3 hPa | 0 mm | - | - | - |
| 1777787764 | 3.33° C | 74% | 1011.5 hPa | 0 mm | - | - | - |
| 1777785964 | 2.78° C | 78% | 1011.6 hPa | 0 mm | - | - | - |
| 1777780565 | 2.78° C | 84% | 1011.9 hPa | 0 mm | - | - | - |
| 1777773364 | 5° C | 75% | 1012.4 hPa | 0 mm | - | - | - |
| 1777760766 | 7.22° C | 75% | 1011.3 hPa | 0 mm | - | - | - |
| 1777754166 | 8.89° C | 51% | 1011 hPa | 0 mm | - | - | - |
| 1777743966 | 8.33° C | 59% | 1011.2 hPa | 0 mm | - | - | - |
| 1777742766 | 8.33° C | 59% | 1011.2 hPa | 0 mm | - | - | - |
| 1777740966 | 7.78° C | 69% | 1011.2 hPa | 0 mm | - | - | - |
| 1777738566 | 7.22° C | 65% | 1011.5 hPa | 0 mm | - | - | - |
| 1777737966 | 7.22° C | 67% | 1011.4 hPa | 0 mm | - | - | - |
| 1777727766 | 5.56° C | 73% | 1011.9 hPa | 0 mm | - | - | - |
| 1777727166 | 5° C | 74% | 1012 hPa | 0 mm | - | - | - |
| 1777718766 | 2.78° C | 85% | 1011.8 hPa | 0 mm | - | - | - |
| 1777715765 | 2.78° C | 82% | 1011.2 hPa | 0 mm | - | - | - |
| 1777709166 | 3.33° C | 75% | 1010.7 hPa | 0 mm | - | - | - |
| 1777707965 | 3.89° C | 73% | 1010.5 hPa | 0 mm | - | - | - |
| 1777705566 | 4.44° C | 69% | 1010.8 hPa | 0 mm | - | - | - |
| 1777701966 | 5.56° C | 65% | 1010.8 hPa | 0 mm | - | - | - |
* Rain latest hour (hover to see other rain measurements)
** Current wind speed in m/s (hover to see current wind gust speed)